Time;durP1;ratioP1;P1;durP2;ratioP2;P2;SDS_P1;SDS_P2;PMS_P1;PMS_P2;Temp;Humidity;BMP_temperature;BMP_pressure;BME280_temperature;BME280_humidity;BME280_pressure;Samples;Min_cycle;Max_cycle;Signal;HPM_P1;HPM_P2
2022/09/19 00:01:17;;;;;;;0.50;0.50;;;;;;;7.96;100.00;154528.81;4954586;28;20159;-80
2022/09/19 00:03:46;;;;;;;4.30;0.60;;;;;;;7.93;100.00;154521.13;4955518;28;20031;-83
2022/09/19 00:06:15;;;;;;;0.43;0.43;;;;;;;7.90;100.00;154513.47;4923514;28;20050;-80
2022/09/19 00:08:42;;;;;;;0.63;0.40;;;;;;;7.90;100.00;154514.72;4940687;29;20037;-80
2022/09/19 00:11:10;;;;;;;2.80;0.40;;;;;;;8.07;100.00;154557.00;4940575;29;20047;-80
2022/09/19 00:13:39;;;;;;;1.35;0.43;;;;;;;8.06;100.00;154554.47;4917072;29;20055;-83
2022/09/19 00:16:06;;;;;;;4.00;0.60;;;;;;;7.98;100.00;154533.94;4925565;29;20046;-81
2022/09/19 00:18:32;;;;;;;3.45;0.70;;;;;;;7.97;100.00;154531.41;4933706;28;20446;-80
2022/09/19 00:21:00;;;;;;;1.65;0.50;;;;;;;7.89;100.00;154512.19;4961067;28;20086;-81
2022/09/19 00:26:19;;;;;;;1.85;0.82;;;;;;;8.09;100.00;154562.13;4963407;28;20669;-80
2022/09/19 00:28:48;;;;;;;3.10;0.60;;;;;;;8.08;100.00;154559.56;4941720;29;20516;-81
2022/09/19 00:31:17;;;;;;;3.53;0.60;;;;;;;8.02;100.00;154544.16;4922624;28;20046;-79
2022/09/19 00:33:44;;;;;;;3.05;0.50;;;;;;;8.07;100.00;154555.72;4922001;29;20048;-82
2022/09/19 00:36:10;;;;;;;3.80;0.85;;;;;;;8.06;100.00;154553.16;4922098;29;20045;-83
2022/09/19 00:38:38;;;;;;;2.97;0.90;;;;;;;8.19;100.00;154586.44;4953325;28;20043;-79
2022/09/19 00:41:06;;;;;;;2.80;0.95;;;;;;;7.96;100.00;154530.09;4942406;29;20039;-80
2022/09/19 00:43:57;;;;;;;4.60;0.90;;;;;;;8.19;100.00;154587.75;4949043;28;20098;-81
2022/09/19 00:46:25;;;;;;;1.20;0.80;;;;;;;8.17;100.00;154582.63;4924466;28;20040;-81
2022/09/19 00:49:19;;;;;;;4.67;1.10;;;;;;;8.17;100.00;154581.31;4927615;28;20392;-83
2022/09/19 00:51:52;;;;;;;3.05;0.82;;;;;;;8.06;100.00;154554.47;4929552;28;20093;-83
2022/09/19 00:54:40;;;;;;;3.17;0.90;;;;;;;7.93;100.00;154522.44;4924133;28;20574;-82
2022/09/19 00:57:07;;;;;;;2.78;0.90;;;;;;;7.96;100.00;154530.09;4936549;29;20051;-82
2022/09/19 00:59:36;;;;;;;4.72;1.02;;;;;;;7.90;100.00;154513.47;4931118;28;20038;-84
2022/09/19 01:02:04;;;;;;;4.10;1.00;;;;;;;8.01;100.00;154540.38;4929226;29;20054;-86
2022/09/19 01:13:15;;;;;;;2.67;0.90;;;;;;;7.96;100.00;154530.09;4935708;28;20053;-79
2022/09/19 01:16:05;;;;;;;3.35;1.40;;;;;;;8.00;100.00;154539.06;4918906;29;20102;-78
2022/09/19 01:19:07;;;;;;;4.93;1.50;;;;;;;7.95;100.00;154526.28;4936882;28;20043;-80
2022/09/19 01:21:40;;;;;;;3.42;1.55;;;;;;;7.94;100.00;154524.97;4948225;28;20051;-78
2022/09/19 01:24:19;;;;;;;4.68;1.70;;;;;;;7.89;100.00;154510.88;4935644;29;20058;-78
2022/09/19 01:26:55;;;;;;;3.65;1.42;;;;;;;7.95;100.00;154527.56;4937060;29;20049;-78
2022/09/19 01:29:29;;;;;;;3.80;1.60;;;;;;;7.80;100.00;154489.13;4954866;28;20031;-79
2022/09/19 01:31:57;;;;;;;3.65;1.70;;;;;;;7.76;100.00;154478.84;4922659;29;20410;-78
2022/09/19 01:34:34;;;;;;;3.20;1.55;;;;;;;7.86;100.00;154504.50;4924003;28;20031;-79
2022/09/19 01:37:12;;;;;;;4.47;1.60;;;;;;;7.79;100.00;154486.56;4919747;29;20042;-78
2022/09/19 01:39:44;;;;;;;7.50;1.50;;;;;;;7.76;100.00;154480.16;4927783;29;20046;-80
2022/09/19 01:42:14;;;;;;;4.03;1.33;;;;;;;7.75;100.00;154476.31;4934797;28;20078;-79
2022/09/19 01:44:40;;;;;;;3.28;1.23;;;;;;;7.73;100.00;154472.47;4934712;28;20050;-79
2022/09/19 01:47:27;;;;;;;3.33;1.40;;;;;;;7.95;100.00;154527.56;4932239;29;20027;-80
2022/09/19 01:50:07;;;;;;;4.30;1.38;;;;;;;7.89;100.00;154510.88;4942780;29;20039;-78
2022/09/19 01:53:02;;;;;;;6.18;1.27;;;;;;;7.88;100.00;154509.63;4949780;28;20062;-80
2022/09/19 01:56:08;;;;;;;4.03;1.58;;;;;;;7.74;100.00;154473.72;4921371;29;20054;-80
2022/09/19 01:58:58;;;;;;;3.38;1.17;;;;;;;7.90;100.00;154513.47;4945431;28;20041;-81
2022/09/19 02:01:42;;;;;;;5.55;1.10;;;;;;;7.89;100.00;154510.88;4940983;28;20043;-81
2022/09/19 02:04:25;;;;;;;4.40;1.13;;;;;;;7.80;100.00;154490.41;4939389;28;20404;-79
2022/09/19 02:07:13;;;;;;;2.63;0.90;;;;;;;7.79;100.00;154486.56;4933262;29;20057;-79
2022/09/19 02:09:52;;;;;;;4.05;1.10;;;;;;;7.77;100.00;154481.44;4937931;28;20030;-78
2022/09/19 02:12:22;;;;;;;6.20;1.33;;;;;;;7.75;100.00;154477.59;4955212;28;20089;-79
2022/09/19 02:14:54;;;;;;;7.28;1.38;;;;;;;7.83;100.00;154495.53;4919837;29;20038;-79
2022/09/19 02:17:31;;;;;;;6.43;1.38;;;;;;;7.62;100.00;154443.03;4920329;28;20074;-79
2022/09/19 02:20:03;;;;;;;3.10;1.20;;;;;;;7.66;100.00;154454.53;4929224;29;20028;-79
2022/09/19 02:22:31;;;;;;;;;;;;;;;7.54;100.00;154425.09;4933714;28;20150;-81
2022/09/19 02:25:03;;;;;;;4.57;1.58;;;;;;;7.53;100.00;154421.25;4925089;29;19919;-79
2022/09/19 02:27:37;;;;;;;2.58;1.20;;;;;;;7.48;100.00;154408.44;4952771;28;20047;-80
2022/09/19 02:30:08;;;;;;;4.93;1.80;;;;;;;7.52;100.00;154419.97;4943515;29;20090;-80
2022/09/19 02:32:47;;;;;;;2.42;1.10;;;;;;;7.63;100.00;154445.56;4945498;28;20034;-80
2022/09/19 02:35:26;;;;;;;5.32;1.50;;;;;;;7.59;100.00;154437.91;4918898;28;20056;-81
2022/09/19 02:38:01;;;;;;;2.33;1.52;;;;;;;7.66;100.00;154453.25;4935315;29;20059;-80
2022/09/19 02:40:47;;;;;;;7.40;1.60;;;;;;;7.64;100.00;154449.41;4918812;28;20036;-80
2022/09/19 02:43:28;;;;;;;4.75;1.75;;;;;;;7.69;100.00;154460.97;4918124;28;20039;-80
2022/09/19 02:45:55;;;;;;;5.97;1.27;;;;;;;7.64;100.00;154448.16;4934298;29;20038;-80
2022/09/19 02:48:50;;;;;;;5.65;1.10;;;;;;;7.56;100.00;154428.94;4930220;28;20186;-80
2022/09/19 02:51:25;;;;;;;4.68;1.45;;;;;;;7.53;100.00;154422.50;4935643;28;20078;-80
2022/09/19 02:54:02;;;;;;;3.85;1.40;;;;;;;7.53;100.00;154421.25;4937465;29;20039;-80
2022/09/19 02:56:33;;;;;;;5.05;1.17;;;;;;;7.53;100.00;154421.25;4918531;28;20040;-77
2022/09/19 02:59:12;;;;;;;5.03;1.20;;;;;;;7.43;100.00;154396.94;4936293;29;20019;-80
2022/09/19 03:01:49;;;;;;;5.55;1.45;;;;;;;7.35;100.00;154376.47;4941620;29;20038;-82
2022/09/19 03:04:21;;;;;;;3.45;1.27;;;;;;;7.51;100.00;154417.41;4924202;28;20027;-81
2022/09/19 03:07:12;;;;;;;2.03;1.13;;;;;;;7.62;100.00;154443.03;4956468;28;20046;-80
2022/09/19 03:09:46;;;;;;;3.95;1.13;;;;;;;7.67;100.00;154455.84;4963457;28;20034;-80
2022/09/19 03:12:22;;;;;;;4.65;1.45;;;;;;;7.74;100.00;154473.72;4938381;28;20046;-81
2022/09/19 03:14:55;;;;;;;8.52;1.45;;;;;;;7.71;100.00;154466.09;4937533;29;20059;-81
2022/09/19 03:17:27;;;;;;;7.57;1.27;;;;;;;7.77;100.00;154481.44;4935487;28;20061;-81
2022/09/19 03:19:53;;;;;;;3.83;1.30;;;;;;;7.77;100.00;154482.69;4950269;29;20177;-80
2022/09/19 03:22:19;;;;;;;4.30;1.40;;;;;;;7.80;100.00;154490.41;4933707;28;20103;-81
2022/09/19 03:24:44;;;;;;;2.42;1.33;;;;;;;7.73;100.00;154472.47;4957017;28;20055;-79
2022/09/19 03:27:10;;;;;;;5.10;1.30;;;;;;;7.62;100.00;154444.28;4939356;29;20186;-82
2022/09/19 03:29:36;;;;;;;5.97;1.48;;;;;;;7.51;100.00;154417.41;4917585;29;20434;-82
2022/09/19 03:32:03;;;;;;;3.40;1.23;;;;;;;7.61;100.00;154441.75;4946980;29;20066;-79
2022/09/19 03:34:32;;;;;;;4.95;1.58;;;;;;;7.56;100.00;154428.94;4939418;28;20050;-79
2022/09/19 03:37:02;;;;;;;6.60;1.58;;;;;;;7.43;100.00;154396.94;4945080;28;20030;-81
2022/09/19 03:39:30;;;;;;;7.38;1.77;;;;;;;7.45;100.00;154400.78;4936173;28;20465;-81
2022/09/19 03:41:55;;;;;;;5.63;1.60;;;;;;;7.41;100.00;154393.06;4942751;29;20054;-82
2022/09/19 03:44:21;;;;;;;9.25;1.85;;;;;;;7.40;100.00;154390.53;4937745;28;20795;-82
2022/09/19 03:46:48;;;;;;;4.93;1.75;;;;;;;7.51;100.00;154417.41;4939957;29;20158;-81
2022/09/19 03:49:16;;;;;;;6.32;1.75;;;;;;;7.42;100.00;154394.34;4953408;28;20038;-80
2022/09/19 03:51:46;;;;;;;6.68;1.55;;;;;;;7.53;100.00;154421.25;4960763;28;20030;-81
2022/09/19 03:54:13;;;;;;;6.88;1.60;;;;;;;7.47;100.00;154407.16;4923479;28;20031;-79
2022/09/19 03:56:41;;;;;;;3.58;1.48;;;;;;;7.39;100.00;154386.69;4940013;29;20034;-80
2022/09/19 03:59:08;;;;;;;5.10;1.55;;;;;;;7.39;100.00;154386.69;4936600;29;20062;-81
2022/09/19 04:01:36;;;;;;;5.72;1.55;;;;;;;7.39;100.00;154387.97;4939287;29;20042;-82
2022/09/19 04:04:04;;;;;;;5.32;1.17;;;;;;;7.47;100.00;154407.16;4969942;28;20440;-79
2022/09/19 04:06:31;;;;;;;6.28;1.23;;;;;;;7.41;100.00;154393.06;4955459;28;20102;-82
2022/09/19 04:08:57;;;;;;;4.20;1.15;;;;;;;7.41;100.00;154391.81;4956388;28;20023;-81
2022/09/19 04:11:22;;;;;;;4.75;1.77;;;;;;;7.28;100.00;154359.78;4942370;28;20061;-81
2022/09/19 04:13:49;;;;;;;6.93;1.50;;;;;;;7.30;100.00;154364.91;4939302;29;20035;-80
2022/09/19 04:16:17;;;;;;;2.85;1.50;;;;;;;7.25;100.00;154352.09;4939720;28;20049;-80
2022/09/19 04:18:47;;;;;;;5.57;1.40;;;;;;;7.21;100.00;154343.19;4937768;29;20035;-81
2022/09/19 04:21:27;;;;;;;3.80;1.65;;;;;;;7.32;100.00;154368.75;4949754;28;20042;-80
2022/09/19 04:24:26;;;;;;;3.35;1.40;;;;;;;7.36;100.00;154379.00;4907817;28;20484;-81
2022/09/19 04:27:08;;;;;;;9.48;1.80;;;;;;;7.36;100.00;154379.00;4924102;28;20035;-80
2022/09/19 04:29:35;;;;;;;4.60;1.40;;;;;;;7.36;100.00;154379.00;4950142;28;20055;-81
2022/09/19 04:32:02;;;;;;;3.15;1.50;;;;;;;7.27;100.00;154355.94;4941529;29;20035;-80
2022/09/19 04:34:28;;;;;;;7.28;1.75;;;;;;;7.23;100.00;154346.97;4953357;28;20031;-81
2022/09/19 04:36:56;;;;;;;8.98;1.60;;;;;;;7.36;100.00;154379.00;4937137;29;20035;-79
2022/09/19 04:39:22;;;;;;;9.40;1.75;;;;;;;7.40;100.00;154389.22;4939389;28;20046;-83
2022/09/19 04:41:52;;;;;;;6.90;1.98;;;;;;;7.50;100.00;154413.59;4931483;28;20027;-79
2022/09/19 04:44:28;;;;;;;7.20;1.80;;;;;;;7.54;100.00;154423.81;4938111;28;20027;-78
2022/09/19 04:47:06;;;;;;;7.07;1.92;;;;;;;7.48;100.00;154408.44;4946199;29;20085;-79
2022/09/19 04:49:36;;;;;;;10.43;1.98;;;;;;;7.60;100.00;154439.19;4951991;28;20039;-78
2022/09/19 04:52:03;;;;;;;5.90;1.83;;;;;;;7.63;100.00;154446.88;4917000;29;20036;-78
2022/09/19 04:54:36;;;;;;;6.75;2.05;;;;;;;7.86;100.00;154504.50;4929401;28;20047;-80
2022/09/19 04:57:05;;;;;;;10.70;2.17;;;;;;;7.88;100.00;154509.63;4935168;29;20043;-78
2022/09/19 04:59:30;;;;;;;10.68;2.10;;;;;;;8.00;100.00;154539.06;4941422;28;20041;-79
2022/09/19 05:01:58;;;;;;;6.38;1.77;;;;;;;8.02;100.00;154542.91;4939658;29;20039;-79
2022/09/19 05:04:24;;;;;;;9.10;2.00;;;;;;;8.05;100.00;154550.59;4925294;28;20047;-79
2022/09/19 05:06:52;;;;;;;11.45;1.90;;;;;;;8.09;100.00;154562.13;4925895;28;20047;-82
2022/09/19 05:09:18;;;;;;;10.70;1.70;;;;;;;8.09;100.00;154560.84;4937676;28;20680;-78
2022/09/19 05:11:59;;;;;;;9.02;2.00;;;;;;;8.10;100.00;154564.69;4954063;28;20058;-83
2022/09/19 05:14:27;;;;;;;7.68;1.80;;;;;;;8.06;100.00;154554.47;4938149;28;20039;-81
2022/09/19 05:16:57;;;;;;;16.55;2.10;;;;;;;8.21;100.00;154590.28;4927529;28;20146;-81
2022/09/19 05:19:22;;;;;;;15.45;2.17;;;;;;;8.27;100.00;154605.66;4931108;28;20066;-82
2022/09/19 05:21:50;;;;;;;8.00;1.52;;;;;;;8.30;100.00;154614.63;4954667;28;20508;-79
2022/09/19 05:24:18;;;;;;;10.27;1.42;;;;;;;8.35;100.00;154626.19;4937068;28;20035;-82
2022/09/19 05:26:45;;;;;;;8.07;1.90;;;;;;;8.37;100.00;154632.56;4922253;28;20052;-81
2022/09/19 05:29:14;;;;;;;13.55;2.90;;;;;;;8.37;100.00;154631.31;4927996;28;20066;-82
2022/09/19 05:31:54;;;;;;;11.55;1.65;;;;;;;8.44;100.00;154647.97;4921642;29;20490;-81
2022/09/19 05:34:33;;;;;;;8.27;1.60;;;;;;;8.45;100.00;154650.56;4950977;28;20109;-81
2022/09/19 05:36:58;;;;;;;12.43;2.10;;;;;;;8.58;100.00;154685.13;4923528;28;20125;-81
2022/09/19 05:39:36;;;;;;;7.22;1.52;;;;;;;8.56;100.00;154680.03;4957277;28;20070;-80
2022/09/19 05:42:22;;;;;;;7.75;1.63;;;;;;;8.59;100.00;154686.44;4945604;28;20619;-79
2022/09/19 05:44:48;;;;;;;8.27;1.77;;;;;;;8.56;100.00;154678.75;4939589;29;20039;-81
2022/09/19 05:47:14;;;;;;;13.52;1.90;;;;;;;8.69;100.00;154710.78;4956380;28;20066;-81
2022/09/19 05:49:39;;;;;;;10.13;2.03;;;;;;;8.73;100.00;154722.31;4954381;28;20035;-83
2022/09/19 05:54:49;;;;;;;7.28;1.80;;;;;;;8.96;100.00;154779.97;4949851;28;20054;-78
2022/09/19 05:57:40;;;;;;;8.50;1.55;;;;;;;8.99;100.00;154785.13;4942950;28;20046;-80
2022/09/19 06:00:07;;;;;;;12.15;2.47;;;;;;;9.06;100.00;154803.03;4927413;28;20035;-81
2022/09/19 06:02:38;;;;;;;10.73;1.95;;;;;;;9.09;100.00;154810.75;4936527;28;20027;-81
2022/09/19 06:05:05;;;;;;;11.80;2.00;;;;;;;9.13;100.00;154820.97;4920776;29;20070;-79
2022/09/19 06:07:31;;;;;;;16.55;2.28;;;;;;;9.12;100.00;154819.72;4951082;28;20038;-79
2022/09/19 06:09:58;;;;;;;17.50;2.00;;;;;;;9.10;100.00;154814.59;4934379;29;20125;-78
2022/09/19 06:12:25;;;;;;;13.77;2.40;;;;;;;9.15;100.00;154827.44;4917108;28;20044;-81
2022/09/19 06:14:52;;;;;;;16.55;2.30;;;;;;;8.98;100.00;154782.53;4947219;28;20102;-78
2022/09/19 06:17:19;;;;;;;11.40;2.00;;;;;;;9.02;100.00;154792.78;4948197;28;20043;-80
2022/09/19 06:19:54;;;;;;;13.75;2.10;;;;;;;8.95;100.00;154776.16;4916869;29;20038;-78
2022/09/19 06:22:39;;;;;;;13.10;1.70;;;;;;;8.81;100.00;154741.53;4922431;28;20055;-79
2022/09/19 06:25:06;;;;;;;9.40;2.00;;;;;;;8.77;100.00;154732.53;4946637;28;20045;-79
2022/09/19 06:27:31;;;;;;;10.85;2.30;;;;;;;8.79;100.00;154735.13;4936541;28;20035;-80
2022/09/19 06:29:58;;;;;;;15.18;1.83;;;;;;;8.73;100.00;154721.03;4942005;29;20043;-79
2022/09/19 06:32:29;;;;;;;9.05;2.03;;;;;;;8.85;100.00;154751.75;4934850;28;20042;-81
2022/09/19 06:35:06;;;;;;;15.50;2.28;;;;;;;9.11;100.00;154815.88;4918295;29;20039;-79
2022/09/19 06:37:33;;;;;;;12.88;1.95;;;;;;;9.36;100.00;154878.66;4954181;28;20042;-80
2022/09/19 06:40:00;;;;;;;14.93;2.72;;;;;;;9.66;100.00;154953.03;4937756;29;20047;-81
2022/09/19 06:42:44;;;;;;;15.18;2.42;;;;;;;9.97;100.00;155030.00;4951557;28;20050;-78
2022/09/19 06:45:30;;;;;;;16.90;2.97;;;;;;;10.24;100.00;155097.94;4951653;28;20028;-80
2022/09/19 06:48:13;;;;;;;14.73;2.20;;;;;;;10.36;100.00;155127.50;4955887;28;20081;-79
2022/09/19 06:50:52;;;;;;;15.48;2.40;;;;;;;10.49;100.00;155162.16;4958334;28;20043;-81
2022/09/19 06:53:18;;;;;;;14.75;2.45;;;;;;;10.62;100.00;155192.91;4920447;28;20066;-79
2022/09/19 06:55:45;;;;;;;15.73;2.78;;;;;;;10.85;100.00;155251.97;4938723;29;20039;-81
2022/09/19 06:58:16;;;;;;;13.67;2.43;;;;;;;11.10;100.00;155314.81;4938787;28;20090;-81
2022/09/19 07:00:44;;;;;;;8.80;1.88;;;;;;;11.18;100.00;155334.06;4924107;29;20285;-79
2022/09/19 07:03:13;;;;;;;12.30;2.17;;;;;;;11.28;100.00;155359.78;4950907;28;20027;-79
2022/09/19 07:05:45;;;;;;;14.77;2.33;;;;;;;11.41;100.00;155391.81;4941856;28;20038;-78
2022/09/19 07:08:19;;;;;;;18.08;3.10;;;;;;;11.59;100.00;155436.78;4926417;28;20058;-80
2022/09/19 07:10:45;;;;;;;21.25;3.60;;;;;;;11.79;100.00;155486.84;4938426;29;20086;-81
2022/09/19 07:13:16;;;;;;;12.43;2.20;;;;;;;11.94;100.00;155524.16;4933439;28;20352;-80
2022/09/19 07:15:45;;;;;;;18.20;3.40;;;;;;;12.07;100.00;155556.22;4950537;28;20067;-80
2022/09/19 07:18:13;;;;;;;24.92;3.78;;;;;;;12.23;100.00;155596.06;4916511;28;20102;-80
2022/09/19 07:20:41;;;;;;;17.63;3.03;;;;;;;12.40;100.00;155638.44;4935496;28;20042;-81
2022/09/19 07:23:15;;;;;;;21.55;3.42;;;;;;;12.54;100.00;155673.09;4957747;28;20090;-79
2022/09/19 07:25:57;;;;;;;22.58;3.53;;;;;;;12.61;100.00;155692.34;4935218;29;20039;-81
2022/09/19 07:28:23;;;;;;;19.48;3.60;;;;;;;12.75;100.00;155727.06;4916126;28;20043;-79
2022/09/19 07:30:51;;;;;;;20.05;3.70;;;;;;;12.71;100.00;155716.75;4943347;29;20043;-79
2022/09/19 07:33:23;;;;;;;23.42;3.67;;;;;;;12.69;100.00;155710.34;4920496;28;20035;-81
2022/09/19 07:35:51;;;;;;;25.40;4.45;;;;;;;12.76;100.00;155729.63;4919821;28;20089;-79
2022/09/19 07:38:18;;;;;;;26.08;3.75;;;;;;;12.70;100.00;155712.94;4923874;28;20038;-81
2022/09/19 07:41:00;;;;;;;21.00;3.60;;;;;;;12.97;100.00;155782.28;4921364;29;20042;-80
2022/09/19 07:43:30;;;;;;;28.30;4.20;;;;;;;13.17;100.00;155831.16;4946039;28;20043;-80
2022/09/19 07:46:31;;;;;;;24.60;3.80;;;;;;;13.18;100.00;155834.97;4891584;29;20376;-79
2022/09/19 07:49:22;;;;;;;20.42;3.08;;;;;;;13.05;100.00;155801.56;4934122;28;20071;-79
2022/09/19 07:52:08;;;;;;;23.35;3.15;;;;;;;13.17;100.00;155832.41;4936058;29;20145;-79
2022/09/19 07:54:34;;;;;;;26.42;4.10;;;;;;;13.16;100.00;155829.81;4937667;29;20043;-80
2022/09/19 07:57:00;;;;;;;24.85;3.97;;;;;;;13.25;100.00;155851.69;4938905;29;20059;-80
2022/09/19 07:59:25;;;;;;;21.65;3.50;;;;;;;13.35;100.00;155877.41;4942805;28;20030;-81
2022/09/19 08:01:58;;;;;;;28.08;3.45;;;;;;;13.53;100.00;155922.44;4927215;29;20039;-80
2022/09/19 08:04:37;;;;;;;21.55;3.30;;;;;;;13.75;100.00;155977.72;4948233;28;20043;-81
2022/09/19 08:07:06;;;;;;;25.10;2.83;;;;;;;13.71;100.00;155967.44;4926958;28;20051;-79
2022/09/19 08:09:34;;;;;;;18.95;2.72;;;;;;;13.85;100.00;156000.84;4949609;28;20067;-80
2022/09/19 08:12:12;;;;;;;18.48;3.17;;;;;;;13.97;100.00;156031.69;4921654;28;20439;-78
2022/09/19 08:14:43;;;;;;;24.17;2.75;;;;;;;14.05;100.00;156050.97;4917606;29;20061;-80
2022/09/19 08:17:10;;;;;;;24.45;3.85;;;;;;;14.27;100.00;156107.53;4923505;29;20050;-82
2022/09/19 08:19:36;;;;;;;26.20;4.50;;;;;;;14.43;100.00;156146.13;4930707;28;20572;-80
2022/09/19 08:22:02;;;;;;;21.27;3.55;;;;;;;14.28;100.00;156110.13;4940304;29;20043;-82
2022/09/19 08:24:35;;;;;;;;;;;;;;;14.06;100.00;156053.56;4943345;28;20049;-79
2022/09/19 08:27:07;;;;;;;27.50;4.03;;;;;;;14.15;100.00;156076.72;4941807;29;20204;-82
2022/09/19 08:29:33;;;;;;;23.85;4.10;;;;;;;14.17;100.00;156083.13;4946710;28;20045;-83
2022/09/19 08:32:06;;;;;;;20.67;3.70;;;;;;;14.43;100.00;156146.13;4939380;29;20113;-80
2022/09/19 08:34:31;;;;;;;18.23;3.10;;;;;;;14.39;100.00;156138.41;4939502;28;20501;-79
2022/09/19 08:37:00;;;;;;;19.75;3.60;;;;;;;14.21;100.00;156093.41;4939182;29;20102;-79
2022/09/19 08:39:28;;;;;;;20.60;3.30;;;;;;;13.99;100.00;156038.13;4923133;28;20062;-79
2022/09/19 08:42:11;;;;;;;15.63;3.38;;;;;;;14.28;100.00;156110.13;4938817;29;20043;-81
2022/09/19 08:44:51;;;;;;;16.40;2.70;;;;;;;14.57;100.00;156182.19;4950140;28;20695;-79
2022/09/19 08:47:21;;;;;;;21.70;3.35;;;;;;;14.52;100.00;156169.25;4939254;28;20106;-80
2022/09/19 08:49:56;;;;;;;29.65;3.90;;;;;;;14.52;100.00;156170.59;4925880;29;20046;-82
2022/09/19 08:52:45;;;;;;;18.92;2.70;;;;;;;14.67;100.00;156206.63;4955509;28;20054;-79
2022/09/19 08:55:22;;;;;;;25.83;2.92;;;;;;;14.81;100.00;156241.38;4933409;28;20513;-79
2022/09/19 08:57:57;;;;;;;13.70;2.22;;;;;;;14.90;100.00;156264.47;4917367;29;20043;-79
2022/09/19 09:00:29;;;;;;;14.38;2.30;;;;;;;14.91;100.00;156267.06;4938016;28;20446;-81
2022/09/19 09:03:02;;;;;;;14.75;2.45;;;;;;;14.77;100.00;156232.38;4937856;28;20046;-79
2022/09/19 09:06:04;;;;;;;11.63;2.15;;;;;;;15.01;100.00;156292.78;4937618;28;20031;-81
2022/09/19 09:08:57;;;;;;;12.30;2.17;;;;;;;15.26;100.00;156354.59;4938620;28;20047;-83
2022/09/19 09:11:49;;;;;;;12.13;2.45;;;;;;;15.24;100.00;156349.41;4924017;28;20099;-80
2022/09/19 09:14:25;;;;;;;20.63;2.80;;;;;;;15.43;100.00;156397.03;4938793;28;20043;-82
2022/09/19 09:17:22;;;;;;;15.05;2.10;;;;;;;15.65;100.00;156452.34;4939457;29;20039;-80
2022/09/19 09:20:28;;;;;;;11.05;2.05;;;;;;;15.74;100.00;156476.84;4939583;28;20031;-80
2022/09/19 09:23:15;;;;;;;20.27;2.33;;;;;;;15.49;100.00;156413.75;4940274;29;20081;-81
2022/09/19 09:26:00;;;;;;;14.38;2.08;;;;;;;15.36;100.00;156380.28;4932970;29;20043;-80
2022/09/19 09:28:39;;;;;;;15.30;2.38;;;;;;;15.43;100.00;156398.31;4935640;28;20035;-79
2022/09/19 09:31:25;;;;;;;15.88;2.70;;;;;;;15.82;100.00;156494.88;4926953;28;20125;-81
2022/09/19 09:34:01;;;;;;;18.23;2.78;;;;;;;16.08;100.00;156560.50;4943798;29;20126;-81
2022/09/19 09:36:42;;;;;;;18.50;2.70;;;;;;;16.39;100.00;156639.06;4940202;28;20035;-79
2022/09/19 09:39:26;;;;;;;14.93;2.08;;;;;;;16.34;100.00;156626.16;4938119;29;20521;-80
2022/09/19 09:41:57;;;;;;;13.43;2.22;;;;;;;16.39;100.00;156637.75;4922713;28;20039;-81
2022/09/19 09:44:31;;;;;;;15.23;2.30;;;;;;;16.33;100.00;156623.56;4944188;28;20050;-83
2022/09/19 09:47:15;;;;;;;14.52;2.65;;;;;;;16.32;100.00;156621.03;4935804;29;20046;-82
2022/09/19 09:49:42;;;;;;;15.43;2.30;;;;;;;16.17;100.00;156583.69;4932716;28;20074;-80
2022/09/19 09:52:32;;;;;;;17.77;2.78;;;;;;;16.07;100.00;156557.97;4952167;28;20027;-80
2022/09/19 09:58:14;;;;;;;13.88;2.17;;;;;;;15.91;100.00;156519.31;4958662;28;20031;-80
2022/09/19 10:03:42;;;;;;;18.48;2.70;;;;;;;15.91;100.00;156518.03;4953315;28;20362;-81
2022/09/19 10:06:30;;;;;;;12.15;1.73;;;;;;;15.80;100.00;156491.00;4937958;28;20039;-81
2022/09/19 10:09:09;;;;;;;11.30;1.80;;;;;;;15.91;99.94;156518.03;4937021;29;20047;-78
2022/09/19 10:11:45;;;;;;;8.35;1.33;;;;;;;16.00;91.56;156541.22;4929757;28;20050;-82
2022/09/19 10:14:18;;;;;;;8.15;1.20;;;;;;;16.30;92.37;156615.88;4949812;28;20031;-80
2022/09/19 10:16:47;;;;;;;;;;;;;;;16.57;97.27;156682.81;4919634;29;20039;-81
2022/09/19 10:19:29;;;;;;;5.53;1.60;;;;;;;16.77;90.73;156734.34;4935065;28;19926;-81
2022/09/19 10:21:59;;;;;;;10.05;1.33;;;;;;;16.82;90.15;156747.28;4943481;28;20046;-79
2022/09/19 10:24:55;;;;;;;9.70;1.55;;;;;;;17.13;87.06;156824.53;4920604;28;20043;-81
2022/09/19 10:27:27;;;;;;;7.35;1.15;;;;;;;17.03;88.08;156800.06;4952899;28;20654;-79
2022/09/19 10:30:20;;;;;;;6.93;1.17;;;;;;;16.95;85.91;156779.44;4956413;28;20501;-77
2022/09/19 10:32:49;;;;;;;6.88;1.40;;;;;;;16.88;88.33;156762.72;4924284;28;20050;-81
2022/09/19 10:35:38;;;;;;;7.75;1.00;;;;;;;16.78;86.98;156736.88;4937297;28;20090;-83
2022/09/19 10:38:15;;;;;;;5.50;1.08;;;;;;;17.02;87.50;156796.19;4919316;28;20035;-82
2022/09/19 10:40:52;;;;;;;11.85;1.85;;;;;;;17.23;83.02;156849.00;4950461;28;20672;-80
2022/09/19 10:43:30;;;;;;;9.82;1.67;;;;;;;17.15;83.03;156829.69;4951294;28;20043;-80
2022/09/19 10:46:06;;;;;;;10.52;1.25;;;;;;;17.06;88.30;156806.50;4936325;29;20034;-82
2022/09/19 10:48:50;;;;;;;7.88;1.17;;;;;;;16.68;94.49;156711.16;4938558;28;20154;-80
2022/09/19 10:51:16;;;;;;;7.15;1.58;;;;;;;16.49;92.31;156664.78;4918335;28;20053;-78
2022/09/19 10:53:52;;;;;;;7.50;1.50;;;;;;;16.30;94.49;156615.88;4938498;29;20137;-81
2022/09/19 10:56:33;;;;;;;10.35;1.58;;;;;;;16.11;92.40;156569.53;4943585;28;20547;-83
2022/09/19 10:59:05;;;;;;;7.60;1.15;;;;;;;15.95;92.58;156529.66;4931044;28;20047;-78
2022/09/19 11:01:38;;;;;;;8.32;1.30;;;;;;;15.73;93.16;156474.28;4928424;29;20046;-79
2022/09/19 11:04:23;;;;;;;6.10;1.10;;;;;;;15.72;96.44;156470.38;4936167;29;20039;-79
2022/09/19 11:06:56;;;;;;;7.45;1.45;;;;;;;15.79;96.03;156487.16;4917869;29;20055;-79
2022/09/19 11:09:37;;;;;;;6.03;1.30;;;;;;;16.06;95.75;156556.66;4951099;28;20047;-80
2022/09/19 11:12:15;;;;;;;8.07;1.50;;;;;;;16.64;90.95;156700.84;4949691;28;20043;-79
2022/09/19 11:14:48;;;;;;;7.03;1.42;;;;;;;17.20;88.26;156842.56;4947513;29;20031;-77
2022/09/19 11:17:41;;;;;;;7.20;1.52;;;;;;;17.62;84.57;156948.19;4957095;28;20041;-78
2022/09/19 11:20:20;;;;;;;5.53;1.23;;;;;;;17.47;81.96;156910.81;4952164;28;20075;-78
2022/09/19 11:23:32;;;;;;;7.97;1.10;;;;;;;17.13;86.91;156825.81;4950293;29;20039;-81
2022/09/19 11:26:31;;;;;;;4.30;1.00;;;;;;;17.34;82.27;156877.34;4938026;29;20050;-80
2022/09/19 11:29:14;;;;;;;9.80;1.38;;;;;;;16.90;81.30;156766.59;4939202;28;20276;-79
2022/09/19 11:32:02;;;;;;;6.93;1.02;;;;;;;16.44;86.65;156651.91;4940344;29;20078;-79
2022/09/19 11:34:57;;;;;;;4.75;1.10;;;;;;;16.28;95.06;156612.00;4936185;28;20043;-81
2022/09/19 11:37:41;;;;;;;8.52;1.27;;;;;;;16.10;86.76;156565.66;4941091;28;20050;-77
2022/09/19 11:40:38;;;;;;;4.38;1.10;;;;;;;16.63;88.88;156698.25;4945896;28;20580;-81
2022/09/19 11:43:30;;;;;;;7.00;1.42;;;;;;;16.64;86.60;156700.84;4955387;29;20031;-80
2022/09/19 11:46:24;;;;;;;5.57;1.10;;;;;;;16.49;88.71;156663.50;4939564;29;20118;-79
2022/09/19 11:49:22;;;;;;;5.57;1.00;;;;;;;16.21;96.71;156593.97;4936828;29;20098;-79
2022/09/19 11:51:51;;;;;;;7.32;0.85;;;;;;;16.42;96.21;156645.47;4926908;29;20038;-81
2022/09/19 11:54:34;;;;;;;6.00;0.90;;;;;;;17.36;85.34;156881.22;4957641;28;20119;-79
2022/09/19 11:57:08;;;;;;;9.57;1.05;;;;;;;17.63;76.24;156950.78;4947857;28;20390;-79
2022/09/19 11:59:55;;;;;;;6.93;0.90;;;;;;;18.00;73.52;157043.59;4946818;28;20034;-79
2022/09/19 12:02:24;;;;;;;5.20;0.75;;;;;;;18.18;79.26;157088.72;4938814;28;20042;-79
2022/09/19 12:05:34;;;;;;;2.92;0.55;;;;;;;17.45;72.31;156904.41;4964220;28;20066;-80
2022/09/19 12:08:17;;;;;;;5.55;1.10;;;;;;;16.80;86.54;156740.75;4915361;28;20051;-82
2022/09/19 12:11:08;;;;;;;2.80;0.70;;;;;;;16.24;93.02;156601.72;4935384;29;20046;-80
2022/09/19 12:13:53;;;;;;;6.38;1.17;;;;;;;15.77;86.83;156483.31;4940178;28;20074;-80
2022/09/19 12:16:26;;;;;;;6.65;1.20;;;;;;;15.64;90.49;156451.06;4946836;28;20062;-79
2022/09/19 12:19:02;;;;;;;7.40;1.83;;;;;;;15.44;99.90;156399.59;4941949;29;20066;-80